sensor_id;sensor_type;location;lat;lon;timestamp;P1;durP1;ratioP1;P2;durP2;ratioP2
76852;SDS011;65825;52.232;10.566;2024-01-15T00:02:03;20.15;;;9.15;;
76852;SDS011;65825;52.232;10.566;2024-01-15T00:04:28;20.08;;;8.35;;
76852;SDS011;65825;52.232;10.566;2024-01-15T00:06:53;13.63;;;6.47;;
76852;SDS011;65825;52.232;10.566;2024-01-15T00:09:19;15.37;;;7.47;;
76852;SDS011;65825;52.232;10.566;2024-01-15T00:11:44;14.67;;;6.33;;
76852;SDS011;65825;52.232;10.566;2024-01-15T00:14:09;21.42;;;7.65;;
76852;SDS011;65825;52.232;10.566;2024-01-15T00:16:35;17.03;;;6.17;;
76852;SDS011;65825;52.232;10.566;2024-01-15T00:19:00;19.57;;;6.83;;
76852;SDS011;65825;52.232;10.566;2024-01-15T00:21:25;12.52;;;5.30;;
76852;SDS011;65825;52.232;10.566;2024-01-15T00:23:51;13.77;;;6.73;;
76852;SDS011;65825;52.232;10.566;2024-01-15T00:26:16;21.23;;;7.95;;
76852;SDS011;65825;52.232;10.566;2024-01-15T00:28:41;21.20;;;7.80;;
76852;SDS011;65825;52.232;10.566;2024-01-15T00:31:07;18.23;;;7.17;;
76852;SDS011;65825;52.232;10.566;2024-01-15T00:33:32;21.57;;;8.10;;
76852;SDS011;65825;52.232;10.566;2024-01-15T00:35:57;21.00;;;8.40;;
76852;SDS011;65825;52.232;10.566;2024-01-15T00:38:23;21.60;;;8.43;;
76852;SDS011;65825;52.232;10.566;2024-01-15T00:40:48;16.17;;;6.82;;
76852;SDS011;65825;52.232;10.566;2024-01-15T00:43:14;16.30;;;7.83;;
76852;SDS011;65825;52.232;10.566;2024-01-15T00:45:39;13.55;;;5.10;;
76852;SDS011;65825;52.232;10.566;2024-01-15T00:48:05;17.73;;;7.10;;
76852;SDS011;65825;52.232;10.566;2024-01-15T00:50:30;12.73;;;5.57;;
76852;SDS011;65825;52.232;10.566;2024-01-15T00:52:55;14.43;;;6.27;;
76852;SDS011;65825;52.232;10.566;2024-01-15T00:55:20;21.13;;;6.87;;
76852;SDS011;65825;52.232;10.566;2024-01-15T00:57:46;17.13;;;6.93;;
76852;SDS011;65825;52.232;10.566;2024-01-15T01:00:11;18.20;;;6.00;;
76852;SDS011;65825;52.232;10.566;2024-01-15T01:02:37;15.55;;;6.63;;
76852;SDS011;65825;52.232;10.566;2024-01-15T01:05:02;14.07;;;5.83;;
76852;SDS011;65825;52.232;10.566;2024-01-15T01:07:28;13.98;;;5.70;;
76852;SDS011;65825;52.232;10.566;2024-01-15T01:09:53;14.50;;;5.57;;
76852;SDS011;65825;52.232;10.566;2024-01-15T01:12:18;17.07;;;5.63;;
76852;SDS011;65825;52.232;10.566;2024-01-15T01:14:44;14.93;;;5.03;;
76852;SDS011;65825;52.232;10.566;2024-01-15T01:17:09;12.90;;;4.00;;
76852;SDS011;65825;52.232;10.566;2024-01-15T01:19:34;14.30;;;5.33;;
76852;SDS011;65825;52.232;10.566;2024-01-15T01:22:00;8.77;;;3.92;;
76852;SDS011;65825;52.232;10.566;2024-01-15T01:24:26;12.87;;;4.63;;
76852;SDS011;65825;52.232;10.566;2024-01-15T01:26:51;11.07;;;4.73;;
76852;SDS011;65825;52.232;10.566;2024-01-15T01:29:16;9.33;;;4.33;;
76852;SDS011;65825;52.232;10.566;2024-01-15T01:31:44;11.90;;;4.63;;
76852;SDS011;65825;52.232;10.566;2024-01-15T01:34:10;10.50;;;5.45;;
76852;SDS011;65825;52.232;10.566;2024-01-15T01:36:36;12.20;;;5.45;;
76852;SDS011;65825;52.232;10.566;2024-01-15T01:39:01;11.70;;;3.57;;
76852;SDS011;65825;52.232;10.566;2024-01-15T01:41:26;13.53;;;5.27;;
76852;SDS011;65825;52.232;10.566;2024-01-15T01:43:51;10.53;;;4.40;;
76852;SDS011;65825;52.232;10.566;2024-01-15T01:46:17;9.23;;;4.40;;
76852;SDS011;65825;52.232;10.566;2024-01-15T01:48:42;11.02;;;4.15;;
76852;SDS011;65825;52.232;10.566;2024-01-15T01:51:08;13.27;;;4.50;;
76852;SDS011;65825;52.232;10.566;2024-01-15T01:53:34;10.55;;;4.10;;
76852;SDS011;65825;52.232;10.566;2024-01-15T01:56:01;11.68;;;4.43;;
76852;SDS011;65825;52.232;10.566;2024-01-15T01:58:27;11.43;;;5.25;;
76852;SDS011;65825;52.232;10.566;2024-01-15T02:00:54;13.45;;;4.30;;
76852;SDS011;65825;52.232;10.566;2024-01-15T02:03:19;7.05;;;3.63;;
76852;SDS011;65825;52.232;10.566;2024-01-15T02:05:45;7.93;;;4.28;;
76852;SDS011;65825;52.232;10.566;2024-01-15T02:08:13;9.15;;;4.35;;
76852;SDS011;65825;52.232;10.566;2024-01-15T02:10:39;11.73;;;4.47;;
76852;SDS011;65825;52.232;10.566;2024-01-15T02:13:04;12.47;;;5.23;;
76852;SDS011;65825;52.232;10.566;2024-01-15T02:15:29;6.83;;;3.70;;
76852;SDS011;65825;52.232;10.566;2024-01-15T02:18:01;10.97;;;4.13;;
76852;SDS011;65825;52.232;10.566;2024-01-15T02:25:19;6.22;;;3.05;;
76852;SDS011;65825;52.232;10.566;2024-01-15T02:27:45;7.32;;;3.40;;
76852;SDS011;65825;52.232;10.566;2024-01-15T02:30:11;4.82;;;2.95;;
76852;SDS011;65825;52.232;10.566;2024-01-15T02:32:37;8.95;;;3.47;;
76852;SDS011;65825;52.232;10.566;2024-01-15T02:35:03;11.48;;;3.20;;
76852;SDS011;65825;52.232;10.566;2024-01-15T02:37:28;6.45;;;3.10;;
76852;SDS011;65825;52.232;10.566;2024-01-15T02:39:54;8.17;;;3.20;;
76852;SDS011;65825;52.232;10.566;2024-01-15T02:42:19;5.57;;;2.17;;
76852;SDS011;65825;52.232;10.566;2024-01-15T02:44:44;7.77;;;2.33;;
76852;SDS011;65825;52.232;10.566;2024-01-15T02:47:09;12.23;;;3.47;;
76852;SDS011;65825;52.232;10.566;2024-01-15T02:49:35;6.40;;;2.87;;
76852;SDS011;65825;52.232;10.566;2024-01-15T02:52:00;3.97;;;2.33;;
76852;SDS011;65825;52.232;10.566;2024-01-15T02:54:25;5.27;;;2.50;;
76852;SDS011;65825;52.232;10.566;2024-01-15T02:56:50;10.90;;;2.90;;
76852;SDS011;65825;52.232;10.566;2024-01-15T02:59:16;5.53;;;2.50;;
76852;SDS011;65825;52.232;10.566;2024-01-15T03:01:41;7.13;;;2.23;;
76852;SDS011;65825;52.232;10.566;2024-01-15T03:04:06;8.40;;;1.70;;
76852;SDS011;65825;52.232;10.566;2024-01-15T03:06:31;4.63;;;1.77;;
76852;SDS011;65825;52.232;10.566;2024-01-15T03:08:56;8.70;;;2.50;;
76852;SDS011;65825;52.232;10.566;2024-01-15T03:11:22;6.63;;;2.13;;
76852;SDS011;65825;52.232;10.566;2024-01-15T03:13:47;10.77;;;2.30;;
76852;SDS011;65825;52.232;10.566;2024-01-15T03:16:12;3.73;;;1.37;;
76852;SDS011;65825;52.232;10.566;2024-01-15T03:18:37;6.57;;;2.30;;
76852;SDS011;65825;52.232;10.566;2024-01-15T03:21:03;6.53;;;2.33;;
76852;SDS011;65825;52.232;10.566;2024-01-15T03:23:29;7.85;;;1.40;;
76852;SDS011;65825;52.232;10.566;2024-01-15T03:25:55;3.50;;;1.50;;
76852;SDS011;65825;52.232;10.566;2024-01-15T03:28:20;8.53;;;2.00;;
76852;SDS011;65825;52.232;10.566;2024-01-15T03:30:45;4.03;;;1.30;;
76852;SDS011;65825;52.232;10.566;2024-01-15T03:33:10;7.57;;;1.90;;
76852;SDS011;65825;52.232;10.566;2024-01-15T03:35:36;6.17;;;2.53;;
76852;SDS011;65825;52.232;10.566;2024-01-15T03:38:01;6.13;;;1.80;;
76852;SDS011;65825;52.232;10.566;2024-01-15T03:40:26;6.93;;;2.23;;
76852;SDS011;65825;52.232;10.566;2024-01-15T03:42:51;4.77;;;1.77;;
76852;SDS011;65825;52.232;10.566;2024-01-15T03:45:16;11.57;;;2.73;;
76852;SDS011;65825;52.232;10.566;2024-01-15T03:47:42;6.53;;;1.50;;
76852;SDS011;65825;52.232;10.566;2024-01-15T03:50:07;6.17;;;1.50;;
76852;SDS011;65825;52.232;10.566;2024-01-15T03:52:33;9.40;;;2.60;;
76852;SDS011;65825;52.232;10.566;2024-01-15T03:54:58;4.87;;;1.63;;
76852;SDS011;65825;52.232;10.566;2024-01-15T03:57:23;5.53;;;1.77;;
76852;SDS011;65825;52.232;10.566;2024-01-15T03:59:49;7.17;;;2.20;;
76852;SDS011;65825;52.232;10.566;2024-01-15T04:02:14;5.23;;;2.33;;
76852;SDS011;65825;52.232;10.566;2024-01-15T04:04:42;5.17;;;1.60;;
76852;SDS011;65825;52.232;10.566;2024-01-15T04:07:09;3.58;;;1.58;;
76852;SDS011;65825;52.232;10.566;2024-01-15T04:09:34;6.72;;;1.77;;
76852;SDS011;65825;52.232;10.566;2024-01-15T04:11:59;4.73;;;1.63;;
76852;SDS011;65825;52.232;10.566;2024-01-15T04:14:25;9.10;;;1.40;;
76852;SDS011;65825;52.232;10.566;2024-01-15T04:16:50;5.63;;;1.50;;
76852;SDS011;65825;52.232;10.566;2024-01-15T04:19:15;7.83;;;1.93;;
76852;SDS011;65825;52.232;10.566;2024-01-15T04:21:40;7.80;;;1.23;;
76852;SDS011;65825;52.232;10.566;2024-01-15T04:24:06;5.28;;;1.73;;
76852;SDS011;65825;52.232;10.566;2024-01-15T04:26:31;4.53;;;1.73;;
76852;SDS011;65825;52.232;10.566;2024-01-15T04:28:56;3.27;;;1.40;;
76852;SDS011;65825;52.232;10.566;2024-01-15T04:31:24;4.78;;;1.30;;
76852;SDS011;65825;52.232;10.566;2024-01-15T04:33:50;15.18;;;2.25;;
76852;SDS011;65825;52.232;10.566;2024-01-15T04:36:15;7.90;;;2.07;;
76852;SDS011;65825;52.232;10.566;2024-01-15T04:38:40;4.27;;;1.60;;
76852;SDS011;65825;52.232;10.566;2024-01-15T04:41:05;4.63;;;1.57;;
76852;SDS011;65825;52.232;10.566;2024-01-15T04:43:31;5.25;;;1.50;;
76852;SDS011;65825;52.232;10.566;2024-01-15T04:45:57;9.32;;;1.85;;
76852;SDS011;65825;52.232;10.566;2024-01-15T04:48:22;6.13;;;1.77;;
76852;SDS011;65825;52.232;10.566;2024-01-15T04:50:47;5.85;;;1.65;;
76852;SDS011;65825;52.232;10.566;2024-01-15T04:53:13;5.20;;;2.20;;
76852;SDS011;65825;52.232;10.566;2024-01-15T04:55:38;3.97;;;1.55;;
76852;SDS011;65825;52.232;10.566;2024-01-15T04:58:04;5.23;;;1.47;;
76852;SDS011;65825;52.232;10.566;2024-01-15T05:00:29;12.30;;;1.77;;
76852;SDS011;65825;52.232;10.566;2024-01-15T05:02:54;5.13;;;2.17;;
76852;SDS011;65825;52.232;10.566;2024-01-15T05:05:21;6.78;;;1.85;;
76852;SDS011;65825;52.232;10.566;2024-01-15T05:07:46;8.50;;;1.73;;
76852;SDS011;65825;52.232;10.566;2024-01-15T05:10:11;4.03;;;1.60;;
76852;SDS011;65825;52.232;10.566;2024-01-15T05:12:36;13.60;;;2.00;;
76852;SDS011;65825;52.232;10.566;2024-01-15T05:15:02;6.97;;;1.43;;
76852;SDS011;65825;52.232;10.566;2024-01-15T05:17:28;5.65;;;1.33;;
76852;SDS011;65825;52.232;10.566;2024-01-15T05:19:54;13.00;;;2.00;;
76852;SDS011;65825;52.232;10.566;2024-01-15T05:22:19;8.53;;;1.50;;
76852;SDS011;65825;52.232;10.566;2024-01-15T05:24:46;6.82;;;2.05;;
76852;SDS011;65825;52.232;10.566;2024-01-15T05:27:11;5.97;;;1.80;;
76852;SDS011;65825;52.232;10.566;2024-01-15T05:29:36;6.28;;;1.67;;
76852;SDS011;65825;52.232;10.566;2024-01-15T05:32:02;4.70;;;2.33;;
76852;SDS011;65825;52.232;10.566;2024-01-15T05:34:27;14.13;;;3.10;;
76852;SDS011;65825;52.232;10.566;2024-01-15T05:36:53;8.37;;;2.83;;
76852;SDS011;65825;52.232;10.566;2024-01-15T05:39:19;8.80;;;2.17;;
76852;SDS011;65825;52.232;10.566;2024-01-15T05:41:44;8.60;;;1.63;;
76852;SDS011;65825;52.232;10.566;2024-01-15T05:44:09;3.83;;;1.80;;
76852;SDS011;65825;52.232;10.566;2024-01-15T05:46:35;7.05;;;1.98;;
76852;SDS011;65825;52.232;10.566;2024-01-15T05:49:01;2.97;;;1.37;;
76852;SDS011;65825;52.232;10.566;2024-01-15T05:51:26;3.92;;;1.90;;
76852;SDS011;65825;52.232;10.566;2024-01-15T05:53:51;2.03;;;1.10;;
76852;SDS011;65825;52.232;10.566;2024-01-15T05:56:16;6.90;;;2.20;;
76852;SDS011;65825;52.232;10.566;2024-01-15T05:58:42;5.15;;;2.08;;
76852;SDS011;65825;52.232;10.566;2024-01-15T06:01:07;10.03;;;1.50;;
76852;SDS011;65825;52.232;10.566;2024-01-15T06:03:33;6.30;;;1.40;;
76852;SDS011;65825;52.232;10.566;2024-01-15T06:05:58;4.47;;;1.97;;
76852;SDS011;65825;52.232;10.566;2024-01-15T06:08:23;6.80;;;1.90;;
76852;SDS011;65825;52.232;10.566;2024-01-15T06:10:48;6.33;;;2.50;;
76852;SDS011;65825;52.232;10.566;2024-01-15T06:13:14;3.87;;;1.73;;
76852;SDS011;65825;52.232;10.566;2024-01-15T06:15:39;7.00;;;1.80;;
76852;SDS011;65825;52.232;10.566;2024-01-15T06:18:04;7.18;;;2.28;;
76852;SDS011;65825;52.232;10.566;2024-01-15T06:20:30;5.82;;;2.47;;
76852;SDS011;65825;52.232;10.566;2024-01-15T06:22:55;5.13;;;1.60;;
76852;SDS011;65825;52.232;10.566;2024-01-15T06:25:20;8.60;;;2.60;;
76852;SDS011;65825;52.232;10.566;2024-01-15T06:27:45;4.20;;;1.87;;
76852;SDS011;65825;52.232;10.566;2024-01-15T06:30:11;6.80;;;1.58;;
76852;SDS011;65825;52.232;10.566;2024-01-15T06:32:36;10.48;;;2.28;;
76852;SDS011;65825;52.232;10.566;2024-01-15T06:35:02;6.00;;;2.13;;
76852;SDS011;65825;52.232;10.566;2024-01-15T06:37:27;4.50;;;1.77;;
76852;SDS011;65825;52.232;10.566;2024-01-15T06:39:52;8.20;;;2.90;;
76852;SDS011;65825;52.232;10.566;2024-01-15T06:42:18;10.73;;;2.40;;
76852;SDS011;65825;52.232;10.566;2024-01-15T06:44:43;8.60;;;2.75;;
76852;SDS011;65825;52.232;10.566;2024-01-15T06:47:08;6.70;;;1.83;;
76852;SDS011;65825;52.232;10.566;2024-01-15T06:49:33;6.53;;;2.30;;
76852;SDS011;65825;52.232;10.566;2024-01-15T06:51:59;7.17;;;2.37;;
76852;SDS011;65825;52.232;10.566;2024-01-15T06:54:24;5.33;;;2.23;;
76852;SDS011;65825;52.232;10.566;2024-01-15T06:56:51;7.70;;;2.53;;
76852;SDS011;65825;52.232;10.566;2024-01-15T06:59:16;4.40;;;1.80;;
76852;SDS011;65825;52.232;10.566;2024-01-15T07:01:41;3.40;;;1.70;;
76852;SDS011;65825;52.232;10.566;2024-01-15T07:04:07;9.30;;;1.77;;
76852;SDS011;65825;52.232;10.566;2024-01-15T07:06:33;6.47;;;1.95;;
76852;SDS011;65825;52.232;10.566;2024-01-15T07:08:58;9.93;;;2.57;;
76852;SDS011;65825;52.232;10.566;2024-01-15T07:11:23;4.77;;;1.80;;
76852;SDS011;65825;52.232;10.566;2024-01-15T07:13:49;9.77;;;2.70;;
76852;SDS011;65825;52.232;10.566;2024-01-15T07:16:14;10.15;;;2.35;;
76852;SDS011;65825;52.232;10.566;2024-01-15T07:18:40;3.67;;;1.60;;
76852;SDS011;65825;52.232;10.566;2024-01-15T07:21:05;2.28;;;1.30;;
76852;SDS011;65825;52.232;10.566;2024-01-15T07:23:31;4.83;;;2.40;;
76852;SDS011;65825;52.232;10.566;2024-01-15T07:25:56;10.40;;;4.05;;
76852;SDS011;65825;52.232;10.566;2024-01-15T07:28:22;13.98;;;5.28;;
76852;SDS011;65825;52.232;10.566;2024-01-15T07:30:47;6.43;;;2.10;;
76852;SDS011;65825;52.232;10.566;2024-01-15T07:33:12;6.77;;;2.00;;
76852;SDS011;65825;52.232;10.566;2024-01-15T07:35:37;13.53;;;2.23;;
76852;SDS011;65825;52.232;10.566;2024-01-15T07:38:03;8.03;;;2.10;;
76852;SDS011;65825;52.232;10.566;2024-01-15T07:40:28;9.60;;;2.13;;
76852;SDS011;65825;52.232;10.566;2024-01-15T07:42:53;11.83;;;4.97;;
76852;SDS011;65825;52.232;10.566;2024-01-15T07:45:19;10.93;;;2.50;;
76852;SDS011;65825;52.232;10.566;2024-01-15T07:47:44;5.30;;;2.23;;
76852;SDS011;65825;52.232;10.566;2024-01-15T07:50:09;12.67;;;2.83;;
76852;SDS011;65825;52.232;10.566;2024-01-15T07:52:35;7.80;;;2.78;;
76852;SDS011;65825;52.232;10.566;2024-01-15T07:55:00;15.93;;;5.97;;
76852;SDS011;65825;52.232;10.566;2024-01-15T07:57:25;13.88;;;3.60;;
76852;SDS011;65825;52.232;10.566;2024-01-15T07:59:51;9.02;;;2.92;;
76852;SDS011;65825;52.232;10.566;2024-01-15T08:02:16;12.13;;;3.70;;
76852;SDS011;65825;52.232;10.566;2024-01-15T08:04:42;10.93;;;3.75;;
76852;SDS011;65825;52.232;10.566;2024-01-15T08:07:07;8.52;;;3.15;;
76852;SDS011;65825;52.232;10.566;2024-01-15T08:09:33;5.15;;;2.58;;
76852;SDS011;65825;52.232;10.566;2024-01-15T08:11:58;7.22;;;1.88;;
76852;SDS011;65825;52.232;10.566;2024-01-15T08:14:24;6.60;;;2.63;;
76852;SDS011;65825;52.232;10.566;2024-01-15T08:16:49;8.40;;;2.00;;
76852;SDS011;65825;52.232;10.566;2024-01-15T08:19:14;4.37;;;1.77;;
76852;SDS011;65825;52.232;10.566;2024-01-15T08:21:40;14.32;;;2.10;;
76852;SDS011;65825;52.232;10.566;2024-01-15T08:24:05;5.07;;;1.97;;
76852;SDS011;65825;52.232;10.566;2024-01-15T08:26:31;4.82;;;2.38;;
76852;SDS011;65825;52.232;10.566;2024-01-15T08:28:57;7.80;;;2.42;;
76852;SDS011;65825;52.232;10.566;2024-01-15T08:31:22;4.20;;;1.40;;
76852;SDS011;65825;52.232;10.566;2024-01-15T08:33:48;7.40;;;2.55;;
76852;SDS011;65825;52.232;10.566;2024-01-15T08:36:13;4.43;;;1.93;;
76852;SDS011;65825;52.232;10.566;2024-01-15T08:38:38;8.13;;;3.10;;
76852;SDS011;65825;52.232;10.566;2024-01-15T08:41:04;4.38;;;2.05;;
76852;SDS011;65825;52.232;10.566;2024-01-15T08:43:29;3.00;;;1.70;;
76852;SDS011;65825;52.232;10.566;2024-01-15T08:45:56;3.63;;;1.67;;
76852;SDS011;65825;52.232;10.566;2024-01-15T08:48:21;4.90;;;1.88;;
76852;SDS011;65825;52.232;10.566;2024-01-15T08:50:47;6.70;;;2.87;;
76852;SDS011;65825;52.232;10.566;2024-01-15T08:53:12;7.90;;;2.50;;
76852;SDS011;65825;52.232;10.566;2024-01-15T08:55:38;5.18;;;2.10;;
76852;SDS011;65825;52.232;10.566;2024-01-15T08:58:03;8.57;;;3.03;;
76852;SDS011;65825;52.232;10.566;2024-01-15T09:00:28;5.90;;;2.30;;
76852;SDS011;65825;52.232;10.566;2024-01-15T09:02:54;5.40;;;2.27;;
76852;SDS011;65825;52.232;10.566;2024-01-15T09:05:19;3.73;;;1.73;;
76852;SDS011;65825;52.232;10.566;2024-01-15T09:07:44;4.40;;;1.85;;
76852;SDS011;65825;52.232;10.566;2024-01-15T09:10:11;5.70;;;2.30;;
76852;SDS011;65825;52.232;10.566;2024-01-15T09:12:36;8.50;;;2.97;;
76852;SDS011;65825;52.232;10.566;2024-01-15T09:15:01;5.07;;;2.10;;
76852;SDS011;65825;52.232;10.566;2024-01-15T09:22:19;4.50;;;1.77;;
76852;SDS011;65825;52.232;10.566;2024-01-15T09:24:45;8.57;;;2.67;;
76852;SDS011;65825;52.232;10.566;2024-01-15T09:27:10;7.97;;;3.20;;
76852;SDS011;65825;52.232;10.566;2024-01-15T09:29:36;5.32;;;2.42;;
76852;SDS011;65825;52.232;10.566;2024-01-15T09:32:06;9.10;;;3.10;;
76852;SDS011;65825;52.232;10.566;2024-01-15T09:34:32;7.55;;;2.55;;
76852;SDS011;65825;52.232;10.566;2024-01-15T09:36:58;7.57;;;2.15;;
76852;SDS011;65825;52.232;10.566;2024-01-15T09:39:25;5.05;;;1.25;;
76852;SDS011;65825;52.232;10.566;2024-01-15T09:41:51;5.60;;;2.13;;
76852;SDS011;65825;52.232;10.566;2024-01-15T09:44:17;3.83;;;1.45;;
76852;SDS011;65825;52.232;10.566;2024-01-15T09:46:44;3.90;;;1.55;;
76852;SDS011;65825;52.232;10.566;2024-01-15T09:49:10;7.32;;;1.90;;
76852;SDS011;65825;52.232;10.566;2024-01-15T09:51:35;4.85;;;1.60;;
76852;SDS011;65825;52.232;10.566;2024-01-15T09:54:02;10.93;;;2.15;;
76852;SDS011;65825;52.232;10.566;2024-01-15T09:56:29;6.40;;;2.20;;
76852;SDS011;65825;52.232;10.566;2024-01-15T09:58:55;5.85;;;2.25;;
76852;SDS011;65825;52.232;10.566;2024-01-15T10:01:22;4.95;;;1.77;;
76852;SDS011;65825;52.232;10.566;2024-01-15T10:03:47;4.25;;;1.35;;
76852;SDS011;65825;52.232;10.566;2024-01-15T10:06:16;3.97;;;1.98;;
76852;SDS011;65825;52.232;10.566;2024-01-15T10:08:43;3.95;;;1.88;;
76852;SDS011;65825;52.232;10.566;2024-01-15T10:11:13;1.70;;;1.02;;
76852;SDS011;65825;52.232;10.566;2024-01-15T10:13:39;5.82;;;1.90;;
76852;SDS011;65825;52.232;10.566;2024-01-15T10:16:05;11.48;;;2.90;;
76852;SDS011;65825;52.232;10.566;2024-01-15T10:18:30;5.85;;;2.28;;
76852;SDS011;65825;52.232;10.566;2024-01-15T10:20:57;5.78;;;2.40;;
76852;SDS011;65825;52.232;10.566;2024-01-15T10:23:23;8.43;;;1.80;;
76852;SDS011;65825;52.232;10.566;2024-01-15T10:25:49;3.85;;;1.80;;
76852;SDS011;65825;52.232;10.566;2024-01-15T10:28:16;5.03;;;2.28;;
76852;SDS011;65825;52.232;10.566;2024-01-15T10:30:41;4.37;;;1.70;;
76852;SDS011;65825;52.232;10.566;2024-01-15T10:33:06;9.90;;;2.87;;
76852;SDS011;65825;52.232;10.566;2024-01-15T10:35:35;7.87;;;2.10;;
76852;SDS011;65825;52.232;10.566;2024-01-15T10:38:00;9.73;;;2.28;;
76852;SDS011;65825;52.232;10.566;2024-01-15T10:40:26;6.30;;;1.77;;
76852;SDS011;65825;52.232;10.566;2024-01-15T10:42:52;3.28;;;1.30;;
76852;SDS011;65825;52.232;10.566;2024-01-15T10:45:18;7.50;;;1.80;;
76852;SDS011;65825;52.232;10.566;2024-01-15T10:47:44;7.28;;;1.73;;
76852;SDS011;65825;52.232;10.566;2024-01-15T10:50:09;5.93;;;1.67;;
76852;SDS011;65825;52.232;10.566;2024-01-15T10:52:36;3.05;;;1.63;;
76852;SDS011;65825;52.232;10.566;2024-01-15T10:55:03;3.28;;;2.05;;
76852;SDS011;65825;52.232;10.566;2024-01-15T10:57:29;6.15;;;1.52;;
76852;SDS011;65825;52.232;10.566;2024-01-15T10:59:55;6.55;;;1.85;;
76852;SDS011;65825;52.232;10.566;2024-01-15T11:02:20;6.33;;;1.53;;
76852;SDS011;65825;52.232;10.566;2024-01-15T11:04:58;4.20;;;1.58;;
76852;SDS011;65825;52.232;10.566;2024-01-15T11:09:51;1.63;;;1.02;;
76852;SDS011;65825;52.232;10.566;2024-01-15T11:12:16;2.87;;;1.07;;
76852;SDS011;65825;52.232;10.566;2024-01-15T11:14:46;2.85;;;1.30;;
76852;SDS011;65825;52.232;10.566;2024-01-15T11:17:13;1.85;;;0.95;;
76852;SDS011;65825;52.232;10.566;2024-01-15T11:19:47;7.32;;;1.65;;
76852;SDS011;65825;52.232;10.566;2024-01-15T11:25:02;5.93;;;1.65;;
76852;SDS011;65825;52.232;10.566;2024-01-15T11:27:43;8.18;;;3.35;;
76852;SDS011;65825;52.232;10.566;2024-01-15T11:30:12;5.50;;;1.80;;
76852;SDS011;65825;52.232;10.566;2024-01-15T11:32:38;4.90;;;1.42;;
76852;SDS011;65825;52.232;10.566;2024-01-15T11:35:07;2.10;;;1.35;;
76852;SDS011;65825;52.232;10.566;2024-01-15T11:40:17;4.85;;;2.25;;
76852;SDS011;65825;52.232;10.566;2024-01-15T11:42:44;3.42;;;1.42;;
76852;SDS011;65825;52.232;10.566;2024-01-15T11:45:10;2.13;;;1.45;;
76852;SDS011;65825;52.232;10.566;2024-01-15T11:50:32;8.00;;;1.77;;
76852;SDS011;65825;52.232;10.566;2024-01-15T11:53:01;7.68;;;1.15;;
76852;SDS011;65825;52.232;10.566;2024-01-15T11:55:34;7.55;;;1.40;;
76852;SDS011;65825;52.232;10.566;2024-01-15T11:58:01;3.35;;;1.30;;
76852;SDS011;65825;52.232;10.566;2024-01-15T12:00:27;4.95;;;1.45;;
76852;SDS011;65825;52.232;10.566;2024-01-15T12:02:53;4.82;;;1.88;;
76852;SDS011;65825;52.232;10.566;2024-01-15T12:05:19;16.27;;;6.85;;
76852;SDS011;65825;52.232;10.566;2024-01-15T12:07:46;4.93;;;1.77;;
76852;SDS011;65825;52.232;10.566;2024-01-15T12:10:16;17.25;;;6.13;;
76852;SDS011;65825;52.232;10.566;2024-01-15T12:12:58;1.77;;;1.20;;
76852;SDS011;65825;52.232;10.566;2024-01-15T12:15:26;1.88;;;1.25;;
76852;SDS011;65825;52.232;10.566;2024-01-15T12:17:56;1.90;;;1.65;;
76852;SDS011;65825;52.232;10.566;2024-01-15T12:20:24;6.45;;;1.63;;
76852;SDS011;65825;52.232;10.566;2024-01-15T12:22:50;5.82;;;1.55;;
76852;SDS011;65825;52.232;10.566;2024-01-15T12:25:15;6.00;;;1.70;;
76852;SDS011;65825;52.232;10.566;2024-01-15T12:27:41;7.17;;;1.77;;
76852;SDS011;65825;52.232;10.566;2024-01-15T12:30:06;2.97;;;1.35;;
76852;SDS011;65825;52.232;10.566;2024-01-15T12:32:32;5.47;;;1.70;;
76852;SDS011;65825;52.232;10.566;2024-01-15T12:34:57;2.60;;;1.00;;
76852;SDS011;65825;52.232;10.566;2024-01-15T12:37:23;8.88;;;2.20;;
76852;SDS011;65825;52.232;10.566;2024-01-15T12:39:51;4.28;;;1.83;;
76852;SDS011;65825;52.232;10.566;2024-01-15T12:42:16;4.85;;;1.30;;
76852;SDS011;65825;52.232;10.566;2024-01-15T12:44:42;4.23;;;1.23;;
76852;SDS011;65825;52.232;10.566;2024-01-15T12:47:08;7.47;;;1.67;;
76852;SDS011;65825;52.232;10.566;2024-01-15T12:49:33;3.83;;;1.07;;
76852;SDS011;65825;52.232;10.566;2024-01-15T12:52:01;8.23;;;1.95;;
76852;SDS011;65825;52.232;10.566;2024-01-15T12:54:27;7.87;;;1.53;;
76852;SDS011;65825;52.232;10.566;2024-01-15T12:56:53;4.28;;;1.23;;
76852;SDS011;65825;52.232;10.566;2024-01-15T12:59:18;3.93;;;1.70;;
76852;SDS011;65825;52.232;10.566;2024-01-15T13:01:44;5.30;;;2.08;;
76852;SDS011;65825;52.232;10.566;2024-01-15T13:04:10;9.75;;;5.05;;
76852;SDS011;65825;52.232;10.566;2024-01-15T13:06:35;11.90;;;4.35;;
76852;SDS011;65825;52.232;10.566;2024-01-15T13:09:02;7.38;;;1.98;;
76852;SDS011;65825;52.232;10.566;2024-01-15T13:11:31;17.08;;;7.07;;
76852;SDS011;65825;52.232;10.566;2024-01-15T13:13:57;3.85;;;1.55;;
76852;SDS011;65825;52.232;10.566;2024-01-15T13:16:22;3.93;;;1.40;;
76852;SDS011;65825;52.232;10.566;2024-01-15T13:18:48;5.73;;;1.80;;
76852;SDS011;65825;52.232;10.566;2024-01-15T13:21:15;4.22;;;2.20;;
76852;SDS011;65825;52.232;10.566;2024-01-15T13:23:40;10.82;;;4.13;;
76852;SDS011;65825;52.232;10.566;2024-01-15T13:26:05;6.43;;;1.53;;
76852;SDS011;65825;52.232;10.566;2024-01-15T13:28:32;8.60;;;2.42;;
76852;SDS011;65825;52.232;10.566;2024-01-15T13:30:57;9.43;;;3.08;;
76852;SDS011;65825;52.232;10.566;2024-01-15T13:33:22;5.80;;;1.60;;
76852;SDS011;65825;52.232;10.566;2024-01-15T13:35:47;9.60;;;1.60;;
76852;SDS011;65825;52.232;10.566;2024-01-15T13:38:15;5.93;;;2.08;;
76852;SDS011;65825;52.232;10.566;2024-01-15T13:40:40;5.00;;;1.63;;
76852;SDS011;65825;52.232;10.566;2024-01-15T13:43:05;9.10;;;2.83;;
76852;SDS011;65825;52.232;10.566;2024-01-15T13:45:33;15.93;;;3.60;;
76852;SDS011;65825;52.232;10.566;2024-01-15T13:47:59;5.18;;;2.13;;
76852;SDS011;65825;52.232;10.566;2024-01-15T13:50:24;27.53;;;6.57;;
76852;SDS011;65825;52.232;10.566;2024-01-15T13:52:49;1.80;;;1.13;;
76852;SDS011;65825;52.232;10.566;2024-01-15T13:55:15;10.67;;;1.73;;
76852;SDS011;65825;52.232;10.566;2024-01-15T13:57:40;6.00;;;1.97;;
76852;SDS011;65825;52.232;10.566;2024-01-15T14:00:05;5.83;;;1.33;;
76852;SDS011;65825;52.232;10.566;2024-01-15T14:02:36;5.85;;;2.60;;
76852;SDS011;65825;52.232;10.566;2024-01-15T14:05:01;4.80;;;1.42;;
76852;SDS011;65825;52.232;10.566;2024-01-15T14:07:27;4.72;;;1.70;;
76852;SDS011;65825;52.232;10.566;2024-01-15T14:09:52;7.13;;;2.20;;
76852;SDS011;65825;52.232;10.566;2024-01-15T14:12:17;6.25;;;2.38;;
76852;SDS011;65825;52.232;10.566;2024-01-15T14:14:42;6.03;;;1.67;;
76852;SDS011;65825;52.232;10.566;2024-01-15T14:17:08;6.83;;;1.93;;
76852;SDS011;65825;52.232;10.566;2024-01-15T14:19:33;4.67;;;1.47;;
76852;SDS011;65825;52.232;10.566;2024-01-15T14:21:58;4.70;;;1.52;;
76852;SDS011;65825;52.232;10.566;2024-01-15T14:24:24;15.77;;;2.33;;
76852;SDS011;65825;52.232;10.566;2024-01-15T14:26:49;10.30;;;2.27;;
76852;SDS011;65825;52.232;10.566;2024-01-15T14:29:14;6.50;;;2.73;;
76852;SDS011;65825;52.232;10.566;2024-01-15T14:31:40;4.87;;;2.40;;
76852;SDS011;65825;52.232;10.566;2024-01-15T14:34:05;5.00;;;1.70;;
76852;SDS011;65825;52.232;10.566;2024-01-15T14:36:32;6.45;;;2.05;;
76852;SDS011;65825;52.232;10.566;2024-01-15T14:38:57;5.93;;;1.70;;
76852;SDS011;65825;52.232;10.566;2024-01-15T14:41:23;4.40;;;1.57;;
76852;SDS011;65825;52.232;10.566;2024-01-15T14:43:48;2.83;;;1.83;;